Jersey, AR

11:07 AM CDT on June 03, 2015 (GMT -0500)
South Arkansas Regional At Goodwin | | Change Station
CLOSE
Current Station
Airport
Location: El Dorado,
Elevation: 276 ft
Nearby Weather Stations
Active Advisory: Flood Warning

Elev 276 ft 33.22 °N, 92.81 °W | Updated 14 minutes ago

Partly Cloudy
Partly Cloudy
78 °F
Feels Like 78 °F
N
5
Wind Variable Wind from Variable

Today
High -- | Low -- °F
--% Chance of Precip.
Yesterday
High -- | Low -- °F
Precip. -- in
6:00 AM 8:14 PM
Full, 99% visible
Pressure 30.00 in
Visibility 10.0 miles
Clouds Clear
Dew Point 64 °F
Humidity 62%
Rainfall 0.00 in
Snow Depth Not available.
UV 9 out of 12
Pollen 4.80 out of 12
Air Quality Not available.
Flu Activity No Activity
METAR KELD 031553Z AUTO VRB04KT 10SM CLR 26/18 A3001 RMK AO2 SLP158 T02560178

More Conditions Fewer Conditions

Pressure 30.00 in
Visibility 10.0 miles
Clouds Clear
Dew Point 64 °F
Humidity 62%
Rainfall 0.00 in
Snow Depth Not available.
UV 9 out of 12
Pollen 4.80 out of 12
Air Quality Not available.
Flu Activity No Activity
METAR KELD 031553Z AUTO VRB04KT 10SM CLR 26/18 A3001 RMK AO2 SLP158 T02560178

More Conditions Fewer Conditions

10-Day Weather Forecast

×

Almanac

Astronomy

Jun. 03, 2015 Rise Set
Actual Time
Civil Twilight
Nautical Twilight
Astronomical Twilight
Moon
Length of Visible Light
Length of Day
Tomorrow will be .
, % of the Moon is Illuminated

Today's Extremes

State Highs State Lows

Community

WunderPhotos

Upload Photos

1,826,245 photos uploaded!

WunderBlogs® & News

Nearby

Air Quality

  Air Quality AQ Index Pollutant
Not available.

Snow Depth

Station Depth Elevation

Earthquake Activity

City Distance Mag. Time & Date
Minimum magnitude displayed is 2.5.

Coastal Water Temperatures

Place Temperature

Stations

Nearby Weather Stations

Station Location Temp. Windchill Dew Point Humidity Wind Precip. Elev Updated Type
                   
Flood Warning
Statement as of 11:04 AM CDT on June 03, 2015

The Flood Warning continues for the Ouachita River at Thatcher l&d.

* Until further notice... or until the warning is cancelled.
* At 7:00 am Wednesday the stage was 85.4 feet.
* Minor flooding is occurring and minor flooding is forecast.
* Flood stage is 79.0 feet.
* Forecast... the river will continue rising to near 86.3 feet by
Saturday morning.
* Impact... at 85.0 feet... there may be some County roads along the
river flooded, requiring lengthy detours. River is high and swift,
boaters should be very cautious. Access to many oil and gas rigs
will be by boat only. Levee gates should be closed.



             Fld observed forecast 7 am
location stg stg day time Thu Fri Sat sun Mon

Ouachita River
Thatcher l 79 85.4 Wed 07 am 85.7 86.0 86.3 86.3 86.1




Lat... Lon 3311 9223 3323 9236 3329 9261 3338 9247
3333 9226 3322 9212